sensor_id;sensor_type;location;lat;lon;timestamp;P1;durP1;ratioP1;P2;durP2;ratioP2
6973;SDS011;3527;52.376;8.990;2023-11-21T00:01:23;36.17;;;20.50;;
6973;SDS011;3527;52.376;8.990;2023-11-21T00:03:49;34.03;;;20.17;;
6973;SDS011;3527;52.376;8.990;2023-11-21T00:06:16;41.10;;;20.97;;
6973;SDS011;3527;52.376;8.990;2023-11-21T00:08:44;37.07;;;20.10;;
6973;SDS011;3527;52.376;8.990;2023-11-21T00:11:11;43.87;;;22.37;;
6973;SDS011;3527;52.376;8.990;2023-11-21T00:13:38;39.50;;;22.57;;
6973;SDS011;3527;52.376;8.990;2023-11-21T00:16:05;32.87;;;20.60;;
6973;SDS011;3527;52.376;8.990;2023-11-21T00:18:33;40.27;;;21.90;;
6973;SDS011;3527;52.376;8.990;2023-11-21T00:21:00;43.23;;;22.57;;
6973;SDS011;3527;52.376;8.990;2023-11-21T00:23:27;40.70;;;21.67;;
6973;SDS011;3527;52.376;8.990;2023-11-21T00:25:54;41.57;;;21.97;;
6973;SDS011;3527;52.376;8.990;2023-11-21T00:28:20;38.17;;;21.77;;
6973;SDS011;3527;52.376;8.990;2023-11-21T00:30:47;42.53;;;22.63;;
6973;SDS011;3527;52.376;8.990;2023-11-21T00:33:14;38.03;;;21.73;;
6973;SDS011;3527;52.376;8.990;2023-11-21T00:35:40;45.17;;;22.73;;
6973;SDS011;3527;52.376;8.990;2023-11-21T00:38:07;38.97;;;22.67;;
6973;SDS011;3527;52.376;8.990;2023-11-21T00:40:35;42.80;;;22.83;;
6973;SDS011;3527;52.376;8.990;2023-11-21T00:43:01;46.77;;;24.77;;
6973;SDS011;3527;52.376;8.990;2023-11-21T00:45:31;49.50;;;25.57;;
6973;SDS011;3527;52.376;8.990;2023-11-21T00:47:58;42.23;;;23.17;;
6973;SDS011;3527;52.376;8.990;2023-11-21T00:50:25;52.23;;;26.53;;
6973;SDS011;3527;52.376;8.990;2023-11-21T00:52:51;44.17;;;24.63;;
6973;SDS011;3527;52.376;8.990;2023-11-21T00:55:18;48.03;;;25.90;;
6973;SDS011;3527;52.376;8.990;2023-11-21T00:57:45;49.53;;;25.70;;
6973;SDS011;3527;52.376;8.990;2023-11-21T01:00:12;48.33;;;25.73;;
6973;SDS011;3527;52.376;8.990;2023-11-21T01:02:43;48.60;;;24.87;;
6973;SDS011;3527;52.376;8.990;2023-11-21T01:05:11;49.53;;;27.37;;
6973;SDS011;3527;52.376;8.990;2023-11-21T01:07:38;43.13;;;24.90;;
6973;SDS011;3527;52.376;8.990;2023-11-21T01:10:05;54.67;;;27.67;;
6973;SDS011;3527;52.376;8.990;2023-11-21T01:12:34;49.90;;;26.63;;
6973;SDS011;3527;52.376;8.990;2023-11-21T01:15:06;55.33;;;28.23;;
6973;SDS011;3527;52.376;8.990;2023-11-21T01:17:38;56.07;;;28.13;;
6973;SDS011;3527;52.376;8.990;2023-11-21T01:20:06;55.20;;;27.90;;
6973;SDS011;3527;52.376;8.990;2023-11-21T01:22:40;55.67;;;27.50;;
6973;SDS011;3527;52.376;8.990;2023-11-21T01:25:07;54.47;;;28.63;;
6973;SDS011;3527;52.376;8.990;2023-11-21T01:27:35;63.37;;;31.43;;
6973;SDS011;3527;52.376;8.990;2023-11-21T01:30:02;68.93;;;30.83;;
6973;SDS011;3527;52.376;8.990;2023-11-21T01:32:29;73.90;;;30.93;;
6973;SDS011;3527;52.376;8.990;2023-11-21T01:34:56;69.07;;;31.87;;
6973;SDS011;3527;52.376;8.990;2023-11-21T01:37:23;78.27;;;35.40;;
6973;SDS011;3527;52.376;8.990;2023-11-21T01:39:50;70.43;;;33.60;;
6973;SDS011;3527;52.376;8.990;2023-11-21T01:42:17;79.37;;;34.17;;
6973;SDS011;3527;52.376;8.990;2023-11-21T01:44:44;74.87;;;35.37;;
6973;SDS011;3527;52.376;8.990;2023-11-21T01:47:12;76.43;;;34.47;;
6973;SDS011;3527;52.376;8.990;2023-11-21T01:49:39;71.73;;;33.20;;
6973;SDS011;3527;52.376;8.990;2023-11-21T01:52:06;84.67;;;35.53;;
6973;SDS011;3527;52.376;8.990;2023-11-21T01:54:33;74.10;;;32.90;;
6973;SDS011;3527;52.376;8.990;2023-11-21T01:57:00;82.50;;;35.27;;
6973;SDS011;3527;52.376;8.990;2023-11-21T01:59:36;78.43;;;35.23;;
6973;SDS011;3527;52.376;8.990;2023-11-21T03:36:38;63.87;;;27.90;;
6973;SDS011;3527;52.376;8.990;2023-11-21T03:39:05;63.67;;;28.30;;
6973;SDS011;3527;52.376;8.990;2023-11-21T03:41:31;64.60;;;27.93;;
6973;SDS011;3527;52.376;8.990;2023-11-21T03:43:58;74.33;;;29.73;;
6973;SDS011;3527;52.376;8.990;2023-11-21T03:46:25;62.37;;;27.70;;
6973;SDS011;3527;52.376;8.990;2023-11-21T03:48:52;63.17;;;26.83;;
6973;SDS011;3527;52.376;8.990;2023-11-21T03:51:18;64.37;;;26.50;;
6973;SDS011;3527;52.376;8.990;2023-11-21T03:53:45;65.30;;;27.43;;
6973;SDS011;3527;52.376;8.990;2023-11-21T03:56:12;60.07;;;28.17;;
6973;SDS011;3527;52.376;8.990;2023-11-21T03:58:40;59.63;;;25.60;;
6973;SDS011;3527;52.376;8.990;2023-11-21T04:01:07;63.17;;;27.57;;
6973;SDS011;3527;52.376;8.990;2023-11-21T04:03:34;64.97;;;26.30;;
6973;SDS011;3527;52.376;8.990;2023-11-21T04:06:01;70.90;;;28.17;;
6973;SDS011;3527;52.376;8.990;2023-11-21T04:08:28;67.50;;;28.70;;
6973;SDS011;3527;52.376;8.990;2023-11-21T04:10:54;69.17;;;26.53;;
6973;SDS011;3527;52.376;8.990;2023-11-21T04:13:22;68.33;;;27.67;;
6973;SDS011;3527;52.376;8.990;2023-11-21T04:15:48;75.43;;;28.80;;
6973;SDS011;3527;52.376;8.990;2023-11-21T04:18:15;75.93;;;27.70;;
6973;SDS011;3527;52.376;8.990;2023-11-21T04:20:42;70.67;;;28.87;;
6973;SDS011;3527;52.376;8.990;2023-11-21T04:23:08;62.80;;;26.27;;
6973;SDS011;3527;52.376;8.990;2023-11-21T04:25:36;72.03;;;26.20;;
6973;SDS011;3527;52.376;8.990;2023-11-21T04:28:03;73.53;;;27.93;;
6973;SDS011;3527;52.376;8.990;2023-11-21T04:30:30;69.60;;;26.60;;
6973;SDS011;3527;52.376;8.990;2023-11-21T04:32:59;71.47;;;27.90;;
6973;SDS011;3527;52.376;8.990;2023-11-21T04:35:25;80.20;;;27.10;;
6973;SDS011;3527;52.376;8.990;2023-11-21T04:37:52;69.73;;;26.10;;
6973;SDS011;3527;52.376;8.990;2023-11-21T04:40:19;61.80;;;24.03;;
6973;SDS011;3527;52.376;8.990;2023-11-21T04:42:47;62.57;;;25.07;;
6973;SDS011;3527;52.376;8.990;2023-11-21T04:45:14;62.30;;;24.07;;
6973;SDS011;3527;52.376;8.990;2023-11-21T04:50:36;69.10;;;26.30;;
6973;SDS011;3527;52.376;8.990;2023-11-21T04:53:03;59.83;;;24.10;;
6973;SDS011;3527;52.376;8.990;2023-11-21T04:55:30;56.40;;;23.63;;
6973;SDS011;3527;52.376;8.990;2023-11-21T04:57:56;50.97;;;22.77;;
6973;SDS011;3527;52.376;8.990;2023-11-21T05:00:23;60.97;;;21.77;;
6973;SDS011;3527;52.376;8.990;2023-11-21T05:02:50;52.00;;;21.30;;
6973;SDS011;3527;52.376;8.990;2023-11-21T05:05:17;51.83;;;21.40;;
6973;SDS011;3527;52.376;8.990;2023-11-21T05:07:44;48.93;;;21.07;;
6973;SDS011;3527;52.376;8.990;2023-11-21T05:10:11;46.73;;;18.77;;
6973;SDS011;3527;52.376;8.990;2023-11-21T05:12:39;49.17;;;18.17;;
6973;SDS011;3527;52.376;8.990;2023-11-21T05:15:07;40.50;;;17.53;;
6973;SDS011;3527;52.376;8.990;2023-11-21T05:17:38;42.60;;;17.07;;
6973;SDS011;3527;52.376;8.990;2023-11-21T05:20:12;42.27;;;18.10;;
6973;SDS011;3527;52.376;8.990;2023-11-21T05:22:40;45.13;;;17.33;;
6973;SDS011;3527;52.376;8.990;2023-11-21T05:25:08;38.93;;;15.73;;
6973;SDS011;3527;52.376;8.990;2023-11-21T05:27:35;35.00;;;15.07;;
6973;SDS011;3527;52.376;8.990;2023-11-21T05:30:03;35.07;;;16.20;;
6973;SDS011;3527;52.376;8.990;2023-11-21T05:32:38;37.10;;;16.03;;
6973;SDS011;3527;52.376;8.990;2023-11-21T05:35:05;38.50;;;15.70;;
6973;SDS011;3527;52.376;8.990;2023-11-21T05:37:44;47.40;;;17.33;;
6973;SDS011;3527;52.376;8.990;2023-11-21T05:40:13;37.53;;;15.77;;
6973;SDS011;3527;52.376;8.990;2023-11-21T05:42:40;44.90;;;17.67;;
6973;SDS011;3527;52.376;8.990;2023-11-21T05:45:07;41.27;;;16.27;;
6973;SDS011;3527;52.376;8.990;2023-11-21T05:47:42;36.70;;;15.23;;
6973;SDS011;3527;52.376;8.990;2023-11-21T05:50:13;37.90;;;17.10;;
6973;SDS011;3527;52.376;8.990;2023-11-21T05:52:42;36.20;;;16.13;;
6973;SDS011;3527;52.376;8.990;2023-11-21T05:55:13;40.17;;;15.90;;
6973;SDS011;3527;52.376;8.990;2023-11-21T05:57:40;35.63;;;15.57;;
6973;SDS011;3527;52.376;8.990;2023-11-21T06:00:09;36.00;;;14.47;;
6973;SDS011;3527;52.376;8.990;2023-11-21T06:02:42;35.30;;;14.33;;
6973;SDS011;3527;52.376;8.990;2023-11-21T06:05:09;33.20;;;14.17;;
6973;SDS011;3527;52.376;8.990;2023-11-21T06:07:37;35.40;;;15.37;;
6973;SDS011;3527;52.376;8.990;2023-11-21T06:10:06;42.20;;;16.23;;
6973;SDS011;3527;52.376;8.990;2023-11-21T06:12:38;35.37;;;14.90;;
6973;SDS011;3527;52.376;8.990;2023-11-21T06:15:06;33.67;;;15.47;;
6973;SDS011;3527;52.376;8.990;2023-11-21T06:17:35;29.83;;;14.37;;
6973;SDS011;3527;52.376;8.990;2023-11-21T06:20:06;35.37;;;15.63;;
6973;SDS011;3527;52.376;8.990;2023-11-21T06:22:41;33.50;;;15.07;;
6973;SDS011;3527;52.376;8.990;2023-11-21T06:25:09;33.37;;;16.13;;
6973;SDS011;3527;52.376;8.990;2023-11-21T06:27:41;38.97;;;16.17;;
6973;SDS011;3527;52.376;8.990;2023-11-21T06:30:09;36.80;;;16.17;;
6973;SDS011;3527;52.376;8.990;2023-11-21T06:32:36;42.20;;;18.30;;
6973;SDS011;3527;52.376;8.990;2023-11-21T06:35:04;32.83;;;15.67;;
6973;SDS011;3527;52.376;8.990;2023-11-21T06:37:31;36.50;;;17.00;;
6973;SDS011;3527;52.376;8.990;2023-11-21T06:39:59;38.23;;;15.90;;
6973;SDS011;3527;52.376;8.990;2023-11-21T06:42:27;33.73;;;15.80;;
6973;SDS011;3527;52.376;8.990;2023-11-21T06:44:55;40.23;;;17.20;;
6973;SDS011;3527;52.376;8.990;2023-11-21T06:47:23;30.73;;;15.13;;
6973;SDS011;3527;52.376;8.990;2023-11-21T06:49:51;36.97;;;17.00;;
6973;SDS011;3527;52.376;8.990;2023-11-21T06:52:19;33.97;;;17.03;;
6973;SDS011;3527;52.376;8.990;2023-11-21T06:54:47;37.03;;;16.50;;
6973;SDS011;3527;52.376;8.990;2023-11-21T06:57:16;31.40;;;16.57;;
6973;SDS011;3527;52.376;8.990;2023-11-21T06:59:43;35.73;;;17.23;;
6973;SDS011;3527;52.376;8.990;2023-11-21T07:02:10;32.97;;;16.10;;
6973;SDS011;3527;52.376;8.990;2023-11-21T07:04:37;37.33;;;16.77;;
6973;SDS011;3527;52.376;8.990;2023-11-21T07:07:04;31.93;;;15.00;;
6973;SDS011;3527;52.376;8.990;2023-11-21T07:09:30;31.00;;;16.70;;
6973;SDS011;3527;52.376;8.990;2023-11-21T07:11:57;34.17;;;15.87;;
6973;SDS011;3527;52.376;8.990;2023-11-21T07:14:24;36.40;;;16.90;;
6973;SDS011;3527;52.376;8.990;2023-11-21T07:16:50;34.77;;;19.90;;
6973;SDS011;3527;52.376;8.990;2023-11-21T07:19:19;36.10;;;18.33;;
6973;SDS011;3527;52.376;8.990;2023-11-21T07:21:48;38.53;;;19.10;;
6973;SDS011;3527;52.376;8.990;2023-11-21T07:24:17;44.50;;;20.43;;
6973;SDS011;3527;52.376;8.990;2023-11-21T07:26:44;43.43;;;18.80;;
6973;SDS011;3527;52.376;8.990;2023-11-21T07:29:11;36.93;;;18.30;;
6973;SDS011;3527;52.376;8.990;2023-11-21T07:31:39;36.00;;;16.50;;
6973;SDS011;3527;52.376;8.990;2023-11-21T07:34:07;62.67;;;19.37;;
6973;SDS011;3527;52.376;8.990;2023-11-21T07:36:34;32.90;;;14.30;;
6973;SDS011;3527;52.376;8.990;2023-11-21T07:39:02;48.47;;;15.53;;
6973;SDS011;3527;52.376;8.990;2023-11-21T07:41:29;26.03;;;11.97;;
6973;SDS011;3527;52.376;8.990;2023-11-21T07:43:57;33.30;;;11.80;;
6973;SDS011;3527;52.376;8.990;2023-11-21T07:46:25;27.43;;;10.03;;
6973;SDS011;3527;52.376;8.990;2023-11-21T07:48:53;46.73;;;12.17;;
6973;SDS011;3527;52.376;8.990;2023-11-21T07:51:21;15.53;;;7.20;;
6973;SDS011;3527;52.376;8.990;2023-11-21T07:53:48;16.97;;;7.60;;
6973;SDS011;3527;52.376;8.990;2023-11-21T07:56:16;36.47;;;11.40;;
6973;SDS011;3527;52.376;8.990;2023-11-21T07:58:43;11.03;;;6.00;;
6973;SDS011;3527;52.376;8.990;2023-11-21T08:01:10;11.80;;;6.00;;
6973;SDS011;3527;52.376;8.990;2023-11-21T08:03:38;14.93;;;6.20;;
6973;SDS011;3527;52.376;8.990;2023-11-21T08:06:05;17.10;;;6.90;;
6973;SDS011;3527;52.376;8.990;2023-11-21T08:08:32;17.47;;;6.23;;
6973;SDS011;3527;52.376;8.990;2023-11-21T08:10:59;10.40;;;5.20;;
6973;SDS011;3527;52.376;8.990;2023-11-21T08:13:28;15.40;;;6.30;;
6973;SDS011;3527;52.376;8.990;2023-11-21T08:16:00;21.93;;;6.50;;
6973;SDS011;3527;52.376;8.990;2023-11-21T08:18:31;33.77;;;8.63;;
6973;SDS011;3527;52.376;8.990;2023-11-21T08:20:58;23.47;;;6.60;;
6973;SDS011;3527;52.376;8.990;2023-11-21T08:23:25;15.40;;;5.57;;
6973;SDS011;3527;52.376;8.990;2023-11-21T08:25:53;8.77;;;4.70;;
6973;SDS011;3527;52.376;8.990;2023-11-21T08:28:20;8.20;;;5.00;;
6973;SDS011;3527;52.376;8.990;2023-11-21T08:30:52;8.23;;;4.40;;
6973;SDS011;3527;52.376;8.990;2023-11-21T08:33:21;9.30;;;5.00;;
6973;SDS011;3527;52.376;8.990;2023-11-21T08:35:48;7.17;;;4.87;;
6973;SDS011;3527;52.376;8.990;2023-11-21T08:38:15;8.50;;;5.27;;
6973;SDS011;3527;52.376;8.990;2023-11-21T08:40:42;23.70;;;6.83;;
6973;SDS011;3527;52.376;8.990;2023-11-21T08:43:11;10.37;;;5.70;;
6973;SDS011;3527;52.376;8.990;2023-11-21T08:45:40;10.90;;;5.80;;
6973;SDS011;3527;52.376;8.990;2023-11-21T08:48:09;23.90;;;8.50;;
6973;SDS011;3527;52.376;8.990;2023-11-21T08:50:38;24.10;;;7.50;;
6973;SDS011;3527;52.376;8.990;2023-11-21T08:53:04;36.27;;;10.00;;
6973;SDS011;3527;52.376;8.990;2023-11-21T08:55:32;38.50;;;8.43;;
6973;SDS011;3527;52.376;8.990;2023-11-21T08:58:03;14.00;;;6.00;;
6973;SDS011;3527;52.376;8.990;2023-11-21T09:00:32;10.13;;;5.47;;
6973;SDS011;3527;52.376;8.990;2023-11-21T09:03:03;10.27;;;5.73;;
6973;SDS011;3527;52.376;8.990;2023-11-21T09:05:37;7.67;;;5.27;;
6973;SDS011;3527;52.376;8.990;2023-11-21T09:08:05;14.23;;;5.73;;
6973;SDS011;3527;52.376;8.990;2023-11-21T09:10:33;9.27;;;5.80;;
6973;SDS011;3527;52.376;8.990;2023-11-21T09:13:05;9.27;;;5.50;;
6973;SDS011;3527;52.376;8.990;2023-11-21T09:15:35;29.23;;;8.87;;
6973;SDS011;3527;52.376;8.990;2023-11-21T09:18:02;12.73;;;6.23;;
6973;SDS011;3527;52.376;8.990;2023-11-21T09:20:29;16.03;;;6.30;;
6973;SDS011;3527;52.376;8.990;2023-11-21T09:22:57;12.20;;;6.77;;
6973;SDS011;3527;52.376;8.990;2023-11-21T09:25:24;22.60;;;8.87;;
6973;SDS011;3527;52.376;8.990;2023-11-21T09:27:50;33.53;;;9.40;;
6973;SDS011;3527;52.376;8.990;2023-11-21T09:30:17;17.47;;;7.17;;
6973;SDS011;3527;52.376;8.990;2023-11-21T09:32:44;29.20;;;9.50;;
6973;SDS011;3527;52.376;8.990;2023-11-21T09:35:12;18.43;;;8.77;;
6973;SDS011;3527;52.376;8.990;2023-11-21T09:37:40;12.83;;;8.00;;
6973;SDS011;3527;52.376;8.990;2023-11-21T09:40:09;14.97;;;8.53;;
6973;SDS011;3527;52.376;8.990;2023-11-21T09:42:40;16.43;;;10.47;;
6973;SDS011;3527;52.376;8.990;2023-11-21T09:45:16;16.60;;;9.87;;
6973;SDS011;3527;52.376;8.990;2023-11-21T09:47:53;17.00;;;10.23;;
6973;SDS011;3527;52.376;8.990;2023-11-21T09:50:22;22.33;;;11.10;;
6973;SDS011;3527;52.376;8.990;2023-11-21T09:53:03;20.97;;;11.23;;
6973;SDS011;3527;52.376;8.990;2023-11-21T09:55:37;20.33;;;11.73;;
6973;SDS011;3527;52.376;8.990;2023-11-21T09:58:08;15.33;;;11.00;;
6973;SDS011;3527;52.376;8.990;2023-11-21T10:00:44;24.77;;;12.07;;
6973;SDS011;3527;52.376;8.990;2023-11-21T10:03:12;32.87;;;14.00;;
6973;SDS011;3527;52.376;8.990;2023-11-21T10:05:41;18.57;;;11.57;;
6973;SDS011;3527;52.376;8.990;2023-11-21T10:08:11;22.60;;;11.73;;
6973;SDS011;3527;52.376;8.990;2023-11-21T10:10:40;27.50;;;12.40;;
6973;SDS011;3527;52.376;8.990;2023-11-21T10:13:11;38.37;;;14.17;;
6973;SDS011;3527;52.376;8.990;2023-11-21T10:15:43;20.70;;;12.30;;
6973;SDS011;3527;52.376;8.990;2023-11-21T10:18:15;22.97;;;13.17;;
6973;SDS011;3527;52.376;8.990;2023-11-21T10:20:43;24.50;;;13.33;;
6973;SDS011;3527;52.376;8.990;2023-11-21T10:23:12;21.73;;;11.87;;
6973;SDS011;3527;52.376;8.990;2023-11-21T10:25:40;21.77;;;12.70;;
6973;SDS011;3527;52.376;8.990;2023-11-21T10:28:06;24.00;;;12.67;;
6973;SDS011;3527;52.376;8.990;2023-11-21T10:30:37;24.00;;;13.60;;
6973;SDS011;3527;52.376;8.990;2023-11-21T10:33:05;20.13;;;11.30;;
6973;SDS011;3527;52.376;8.990;2023-11-21T10:35:42;17.80;;;11.17;;
6973;SDS011;3527;52.376;8.990;2023-11-21T10:38:22;177.83;;;30.30;;
6973;SDS011;3527;52.376;8.990;2023-11-21T10:40:51;27.13;;;12.03;;
6973;SDS011;3527;52.376;8.990;2023-11-21T10:43:18;33.67;;;13.27;;
6973;SDS011;3527;52.376;8.990;2023-11-21T10:45:45;19.43;;;10.63;;
6973;SDS011;3527;52.376;8.990;2023-11-21T10:48:13;17.27;;;9.93;;
6973;SDS011;3527;52.376;8.990;2023-11-21T10:50:45;20.00;;;10.93;;
6973;SDS011;3527;52.376;8.990;2023-11-21T10:53:13;15.27;;;9.23;;
6973;SDS011;3527;52.376;8.990;2023-11-21T10:55:41;15.53;;;9.73;;
6973;SDS011;3527;52.376;8.990;2023-11-21T10:58:10;15.97;;;9.80;;
6973;SDS011;3527;52.376;8.990;2023-11-21T11:00:41;15.70;;;9.27;;
6973;SDS011;3527;52.376;8.990;2023-11-21T11:03:09;17.17;;;9.43;;
6973;SDS011;3527;52.376;8.990;2023-11-21T11:05:46;13.77;;;9.00;;
6973;SDS011;3527;52.376;8.990;2023-11-21T11:08:19;16.40;;;9.53;;
6973;SDS011;3527;52.376;8.990;2023-11-21T11:10:53;21.97;;;9.27;;
6973;SDS011;3527;52.376;8.990;2023-11-21T11:13:20;13.87;;;8.10;;
6973;SDS011;3527;52.376;8.990;2023-11-21T11:15:48;12.07;;;7.87;;
6973;SDS011;3527;52.376;8.990;2023-11-21T11:18:15;12.20;;;7.10;;
6973;SDS011;3527;52.376;8.990;2023-11-21T11:20:43;14.43;;;8.10;;
6973;SDS011;3527;52.376;8.990;2023-11-21T11:29:02;22.73;;;9.00;;
6973;SDS011;3527;52.376;8.990;2023-11-21T11:31:37;56.57;;;13.17;;
6973;SDS011;3527;52.376;8.990;2023-11-21T11:37:19;15.90;;;8.30;;
6973;SDS011;3527;52.376;8.990;2023-11-21T11:39:46;12.73;;;6.93;;
6973;SDS011;3527;52.376;8.990;2023-11-21T11:42:17;19.67;;;7.30;;
6973;SDS011;3527;52.376;8.990;2023-11-21T11:47:21;9.83;;;6.90;;
6973;SDS011;3527;52.376;8.990;2023-11-21T11:49:59;12.77;;;7.20;;
6973;SDS011;3527;52.376;8.990;2023-11-21T11:52:50;13.67;;;8.07;;
6973;SDS011;3527;52.376;8.990;2023-11-21T11:55:19;11.73;;;7.23;;
6973;SDS011;3527;52.376;8.990;2023-11-21T11:57:48;17.50;;;8.30;;
6973;SDS011;3527;52.376;8.990;2023-11-21T12:00:17;12.23;;;6.97;;
6973;SDS011;3527;52.376;8.990;2023-11-21T12:02:52;14.00;;;7.17;;
6973;SDS011;3527;52.376;8.990;2023-11-21T12:05:20;12.47;;;7.00;;
6973;SDS011;3527;52.376;8.990;2023-11-21T12:10:21;14.67;;;7.07;;
6973;SDS011;3527;52.376;8.990;2023-11-21T12:13:26;13.37;;;7.67;;
6973;SDS011;3527;52.376;8.990;2023-11-21T12:15:46;18.77;;;7.47;;
6973;SDS011;3527;52.376;8.990;2023-11-21T12:18:13;11.57;;;7.10;;
6973;SDS011;3527;52.376;8.990;2023-11-21T12:20:40;20.17;;;7.20;;
6973;SDS011;3527;52.376;8.990;2023-11-21T12:23:09;23.10;;;8.33;;
6973;SDS011;3527;52.376;8.990;2023-11-21T12:25:37;33.60;;;9.27;;
6973;SDS011;3527;52.376;8.990;2023-11-21T12:28:08;18.37;;;8.93;;
6973;SDS011;3527;52.376;8.990;2023-11-21T12:30:36;11.50;;;6.60;;
6973;SDS011;3527;52.376;8.990;2023-11-21T12:33:05;10.50;;;6.10;;
6973;SDS011;3527;52.376;8.990;2023-11-21T12:35:33;12.97;;;6.73;;
6973;SDS011;3527;52.376;8.990;2023-11-21T12:38:01;11.70;;;6.80;;
6973;SDS011;3527;52.376;8.990;2023-11-21T12:40:30;8.67;;;5.87;;
6973;SDS011;3527;52.376;8.990;2023-11-21T12:42:57;25.80;;;8.57;;
6973;SDS011;3527;52.376;8.990;2023-11-21T12:45:26;8.33;;;6.40;;
6973;SDS011;3527;52.376;8.990;2023-11-21T12:47:55;9.40;;;6.90;;
6973;SDS011;3527;52.376;8.990;2023-11-21T12:50:38;8.97;;;6.37;;
6973;SDS011;3527;52.376;8.990;2023-11-21T12:53:08;8.40;;;5.93;;
6973;SDS011;3527;52.376;8.990;2023-11-21T12:55:39;27.50;;;8.73;;
6973;SDS011;3527;52.376;8.990;2023-11-21T12:58:07;18.93;;;7.67;;
6973;SDS011;3527;52.376;8.990;2023-11-21T13:03:06;14.17;;;6.73;;
6973;SDS011;3527;52.376;8.990;2023-11-21T13:05:39;7.57;;;5.83;;
6973;SDS011;3527;52.376;8.990;2023-11-21T13:08:13;7.20;;;5.63;;
6973;SDS011;3527;52.376;8.990;2023-11-21T13:10:43;11.77;;;6.10;;
6973;SDS011;3527;52.376;8.990;2023-11-21T13:13:13;6.83;;;5.30;;
6973;SDS011;3527;52.376;8.990;2023-11-21T13:15:56;11.93;;;5.50;;
6973;SDS011;3527;52.376;8.990;2023-11-21T13:18:32;10.83;;;5.90;;
6973;SDS011;3527;52.376;8.990;2023-11-21T13:21:01;11.60;;;5.63;;
6973;SDS011;3527;52.376;8.990;2023-11-21T13:23:49;8.73;;;5.53;;
6973;SDS011;3527;52.376;8.990;2023-11-21T13:26:19;12.70;;;6.20;;
6973;SDS011;3527;52.376;8.990;2023-11-21T13:28:47;10.77;;;6.30;;
6973;SDS011;3527;52.376;8.990;2023-11-21T13:31:14;9.13;;;5.63;;
6973;SDS011;3527;52.376;8.990;2023-11-21T13:33:49;8.73;;;6.13;;
6973;SDS011;3527;52.376;8.990;2023-11-21T13:36:23;8.53;;;5.87;;
6973;SDS011;3527;52.376;8.990;2023-11-21T13:38:52;12.03;;;6.20;;
6973;SDS011;3527;52.376;8.990;2023-11-21T13:41:20;7.47;;;5.57;;
6973;SDS011;3527;52.376;8.990;2023-11-21T13:43:54;10.17;;;5.43;;
6973;SDS011;3527;52.376;8.990;2023-11-21T13:46:29;7.93;;;5.63;;
6973;SDS011;3527;52.376;8.990;2023-11-21T13:49:04;10.03;;;5.90;;
6973;SDS011;3527;52.376;8.990;2023-11-21T13:51:37;8.70;;;6.07;;
6973;SDS011;3527;52.376;8.990;2023-11-21T13:54:09;8.97;;;5.70;;
6973;SDS011;3527;52.376;8.990;2023-11-21T13:56:37;7.73;;;5.57;;
6973;SDS011;3527;52.376;8.990;2023-11-21T13:59:06;11.43;;;6.53;;
6973;SDS011;3527;52.376;8.990;2023-11-21T14:01:47;9.93;;;6.07;;
6973;SDS011;3527;52.376;8.990;2023-11-21T14:04:24;14.87;;;6.67;;
6973;SDS011;3527;52.376;8.990;2023-11-21T14:06:53;8.83;;;5.40;;
6973;SDS011;3527;52.376;8.990;2023-11-21T14:09:22;10.97;;;6.30;;
6973;SDS011;3527;52.376;8.990;2023-11-21T14:11:52;10.33;;;5.93;;
6973;SDS011;3527;52.376;8.990;2023-11-21T14:14:23;13.20;;;6.40;;
6973;SDS011;3527;52.376;8.990;2023-11-21T14:16:51;8.33;;;5.90;;
6973;SDS011;3527;52.376;8.990;2023-11-21T14:19:18;14.53;;;6.50;;
6973;SDS011;3527;52.376;8.990;2023-11-21T14:21:45;12.13;;;6.33;;
6973;SDS011;3527;52.376;8.990;2023-11-21T14:24:13;12.00;;;5.80;;
6973;SDS011;3527;52.376;8.990;2023-11-21T14:26:41;14.30;;;5.77;;
6973;SDS011;3527;52.376;8.990;2023-11-21T14:29:09;10.97;;;6.30;;
6973;SDS011;3527;52.376;8.990;2023-11-21T14:31:39;9.50;;;5.87;;
6973;SDS011;3527;52.376;8.990;2023-11-21T14:34:10;8.03;;;5.60;;
6973;SDS011;3527;52.376;8.990;2023-11-21T14:36:39;10.73;;;6.53;;
6973;SDS011;3527;52.376;8.990;2023-11-21T14:39:07;8.90;;;5.70;;
6973;SDS011;3527;52.376;8.990;2023-11-21T14:41:38;11.30;;;6.57;;
6973;SDS011;3527;52.376;8.990;2023-11-21T14:44:06;10.97;;;5.67;;
6973;SDS011;3527;52.376;8.990;2023-11-21T14:46:38;8.27;;;5.77;;
6973;SDS011;3527;52.376;8.990;2023-11-21T14:49:12;12.40;;;6.43;;
6973;SDS011;3527;52.376;8.990;2023-11-21T14:51:51;8.90;;;6.07;;
6973;SDS011;3527;52.376;8.990;2023-11-21T14:54:44;8.47;;;5.57;;
6973;SDS011;3527;52.376;8.990;2023-11-21T14:57:13;12.07;;;6.30;;
6973;SDS011;3527;52.376;8.990;2023-11-21T14:59:45;7.63;;;5.73;;
6973;SDS011;3527;52.376;8.990;2023-11-21T15:02:24;8.27;;;6.50;;
6973;SDS011;3527;52.376;8.990;2023-11-21T15:05:14;9.17;;;6.67;;
6973;SDS011;3527;52.376;8.990;2023-11-21T15:07:43;11.03;;;6.20;;
6973;SDS011;3527;52.376;8.990;2023-11-21T15:10:12;8.33;;;5.37;;
6973;SDS011;3527;52.376;8.990;2023-11-21T15:12:42;8.03;;;6.10;;
6973;SDS011;3527;52.376;8.990;2023-11-21T15:15:11;8.30;;;5.80;;
6973;SDS011;3527;52.376;8.990;2023-11-21T15:17:38;9.67;;;6.13;;
6973;SDS011;3527;52.376;8.990;2023-11-21T15:20:09;8.10;;;6.03;;
6973;SDS011;3527;52.376;8.990;2023-11-21T15:22:39;9.47;;;5.53;;
6973;SDS011;3527;52.376;8.990;2023-11-21T15:25:06;8.70;;;5.73;;
6973;SDS011;3527;52.376;8.990;2023-11-21T15:27:37;9.03;;;5.70;;
6973;SDS011;3527;52.376;8.990;2023-11-21T15:30:04;7.83;;;5.77;;
6973;SDS011;3527;52.376;8.990;2023-11-21T15:32:32;7.90;;;5.20;;
6973;SDS011;3527;52.376;8.990;2023-11-21T15:34:59;7.17;;;5.93;;
6973;SDS011;3527;52.376;8.990;2023-11-21T15:37:26;8.47;;;6.00;;
6973;SDS011;3527;52.376;8.990;2023-11-21T15:39:55;8.27;;;6.10;;
6973;SDS011;3527;52.376;8.990;2023-11-21T15:42:21;7.63;;;5.60;;
6973;SDS011;3527;52.376;8.990;2023-11-21T15:44:48;9.00;;;5.40;;
6973;SDS011;3527;52.376;8.990;2023-11-21T15:47:16;7.70;;;4.97;;
6973;SDS011;3527;52.376;8.990;2023-11-21T15:49:43;8.40;;;5.80;;
6973;SDS011;3527;52.376;8.990;2023-11-21T15:52:15;9.87;;;5.53;;
6973;SDS011;3527;52.376;8.990;2023-11-21T15:54:42;6.73;;;4.60;;
6973;SDS011;3527;52.376;8.990;2023-11-21T15:57:12;6.73;;;4.67;;
6973;SDS011;3527;52.376;8.990;2023-11-21T15:59:39;8.63;;;5.10;;
6973;SDS011;3527;52.376;8.990;2023-11-21T16:02:09;6.90;;;4.93;;
6973;SDS011;3527;52.376;8.990;2023-11-21T16:04:39;6.40;;;5.00;;
6973;SDS011;3527;52.376;8.990;2023-11-21T16:07:06;7.87;;;5.20;;
6973;SDS011;3527;52.376;8.990;2023-11-21T16:09:33;7.17;;;4.60;;
6973;SDS011;3527;52.376;8.990;2023-11-21T16:12:03;4.80;;;4.03;;
6973;SDS011;3527;52.376;8.990;2023-11-21T16:14:33;8.17;;;5.00;;
6973;SDS011;3527;52.376;8.990;2023-11-21T16:17:10;5.73;;;4.27;;
6973;SDS011;3527;52.376;8.990;2023-11-21T16:19:38;7.87;;;4.77;;
6973;SDS011;3527;52.376;8.990;2023-11-21T16:22:05;6.20;;;4.50;;
6973;SDS011;3527;52.376;8.990;2023-11-21T16:24:33;8.93;;;4.73;;
6973;SDS011;3527;52.376;8.990;2023-11-21T16:27:00;8.13;;;5.20;;
6973;SDS011;3527;52.376;8.990;2023-11-21T16:29:29;8.20;;;5.23;;
6973;SDS011;3527;52.376;8.990;2023-11-21T16:31:59;7.80;;;5.37;;
6973;SDS011;3527;52.376;8.990;2023-11-21T16:34:27;9.63;;;4.93;;
6973;SDS011;3527;52.376;8.990;2023-11-21T16:36:54;7.63;;;5.33;;
6973;SDS011;3527;52.376;8.990;2023-11-21T16:39:25;9.50;;;5.60;;
6973;SDS011;3527;52.376;8.990;2023-11-21T16:41:52;8.63;;;5.57;;
6973;SDS011;3527;52.376;8.990;2023-11-21T16:44:19;10.03;;;6.20;;
6973;SDS011;3527;52.376;8.990;2023-11-21T16:46:50;9.07;;;6.17;;
6973;SDS011;3527;52.376;8.990;2023-11-21T16:49:20;7.20;;;5.33;;
6973;SDS011;3527;52.376;8.990;2023-11-21T16:51:47;9.03;;;6.07;;
6973;SDS011;3527;52.376;8.990;2023-11-21T16:54:15;7.20;;;4.90;;
6973;SDS011;3527;52.376;8.990;2023-11-21T16:56:42;6.87;;;4.60;;
6973;SDS011;3527;52.376;8.990;2023-11-21T16:59:13;8.00;;;5.23;;
6973;SDS011;3527;52.376;8.990;2023-11-21T17:01:41;9.70;;;5.10;;
6973;SDS011;3527;52.376;8.990;2023-11-21T17:04:08;8.17;;;4.53;;